Time;durP1;ratioP1;P1;durP2;ratioP2;P2;SDS_P1;SDS_P2;PMS_P1;PMS_P2;Temp;Humidity;BMP_temperature;BMP_pressure;BME280_temperature;BME280_humidity;BME280_pressure;Samples;Min_cycle;Max_cycle;Signal;HPM_P1;HPM_P2
2022/10/22 00:09:15;;;;;;;9.67;3.43;;;16.90;99.90;;;;;;8054472;72;26384;-58
2022/10/22 00:19:17;;;;;;;7.87;3.60;;;17.10;99.90;;;;;;8057703;72;26325;-57
2022/10/22 00:29:20;;;;;;;12.37;3.70;;;16.90;99.90;;;;;;8049026;72;26274;-58
2022/10/22 00:39:24;;;;;;;8.20;3.50;;;16.90;99.90;;;;;;8055705;72;26237;-55
2022/10/22 00:49:27;;;;;;;8.87;4.20;;;16.90;99.90;;;;;;8051105;72;26693;-59
2022/10/22 00:59:30;;;;;;;6.67;3.73;;;17.00;99.90;;;;;;8053838;72;26300;-58
2022/10/22 01:09:38;;;;;;;13.23;3.73;;;16.90;99.90;;;;;;8056738;72;26233;-59
2022/10/22 01:19:43;;;;;;;5.97;3.37;;;16.90;99.90;;;;;;8025997;72;26335;-58
2022/10/22 01:29:52;;;;;;;5.13;3.50;;;17.00;99.90;;;;;;8060874;72;26737;-57
2022/10/22 01:39:57;;;;;;;4.30;2.70;;;16.90;99.90;;;;;;8071128;72;26300;-58
2022/10/22 01:50:12;;;;;;;5.87;2.43;;;17.00;99.90;;;;;;8061483;72;26798;-57
2022/10/22 02:00:16;;;;;;;6.33;2.50;;;16.80;99.90;;;;;;8066062;72;26745;-58
2022/10/22 02:10:20;;;;;;;6.00;2.87;;;16.70;99.90;;;;;;8039919;72;26289;-60
2022/10/22 02:20:26;;;;;;;4.20;2.47;;;16.90;99.90;;;;;;8046583;72;26243;-60
2022/10/22 02:30:29;;;;;;;4.23;2.37;;;17.00;99.90;;;;;;8050667;72;26793;-58
2022/10/22 02:40:31;;;;;;;6.30;2.60;;;17.00;99.90;;;;;;8043272;72;26229;-58
2022/10/22 02:50:34;;;;;;;5.07;2.23;;;16.80;99.90;;;;;;8062221;72;26204;-58
2022/10/22 03:00:36;;;;;;;5.73;3.43;;;16.80;99.90;;;;;;8061254;72;26263;-59
2022/10/22 03:10:39;;;;;;;6.03;2.40;;;16.80;99.90;;;;;;8060117;72;26654;-60
2022/10/22 03:20:41;;;;;;;7.47;2.60;;;16.80;99.90;;;;;;8047670;72;26370;-59
2022/10/22 03:30:44;;;;;;;6.83;3.00;;;16.90;99.90;;;;;;8059816;72;26297;-60
2022/10/22 03:40:47;;;;;;;4.87;2.37;;;17.00;99.90;;;;;;8066666;72;26281;-59
2022/10/22 03:50:49;;;;;;;4.47;2.70;;;17.00;99.90;;;;;;8076424;72;26266;-60
2022/10/22 04:00:52;;;;;;;7.10;2.90;;;16.90;99.90;;;;;;8037986;72;26240;-59
2022/10/22 04:10:55;;;;;;;6.07;2.93;;;17.00;99.90;;;;;;8040873;72;26759;-59
2022/10/22 04:20:57;;;;;;;6.90;2.67;;;17.10;99.90;;;;;;8070393;72;26232;-58
2022/10/22 04:31:00;;;;;;;5.67;2.50;;;17.00;99.90;;;;;;8048406;72;26304;-60
2022/10/22 04:41:16;;;;;;;8.00;3.03;;;17.10;99.90;;;;;;8042159;72;26759;-59
2022/10/22 04:51:21;;;;;;;7.53;3.07;;;17.10;99.90;;;;;;8057713;72;26289;-59
2022/10/22 05:01:27;;;;;;;6.83;2.43;;;17.10;99.90;;;;;;8042072;72;26245;-56
2022/10/22 05:11:35;;;;;;;6.20;2.30;;;17.00;99.90;;;;;;8048298;72;26219;-57
2022/10/22 05:21:38;;;;;;;6.17;4.20;;;17.10;99.90;;;;;;8048511;72;26247;-59
2022/10/22 05:31:40;;;;;;;7.93;3.37;;;17.00;99.90;;;;;;8053238;72;26309;-57
2022/10/22 05:41:43;;;;;;;5.47;2.73;;;17.00;99.90;;;;;;8049437;72;26379;-57
2022/10/22 05:51:45;;;;;;;7.07;3.03;;;16.90;99.90;;;;;;8025174;72;26255;-59
2022/10/22 06:01:48;;;;;;;8.03;2.53;;;16.90;99.90;;;;;;8033511;72;26359;-59
2022/10/22 06:11:51;;;;;;;8.00;2.80;;;16.90;99.90;;;;;;8002830;72;26257;-62
2022/10/22 06:21:54;;;;;;;4.57;2.27;;;16.80;99.90;;;;;;8013634;72;26277;-59
2022/10/22 06:31:56;;;;;;;14.13;4.93;;;16.90;99.90;;;;;;8012483;72;26356;-58
2022/10/22 06:41:59;;;;;;;18.40;8.77;;;17.00;99.90;;;;;;8050177;72;26292;-59
2022/10/22 06:52:01;;;;;;;19.77;8.97;;;17.00;99.90;;;;;;8048943;72;26295;-59
2022/10/22 07:02:04;;;;;;;19.73;7.77;;;17.00;99.90;;;;;;8049483;72;26773;-59
2022/10/22 07:12:07;;;;;;;22.30;8.77;;;17.00;99.90;;;;;;8018785;72;26357;-59
2022/10/22 07:22:09;;;;;;;27.53;11.50;;;17.00;99.90;;;;;;8019200;72;26856;-57
2022/10/22 07:32:12;;;;;;;22.47;8.27;;;17.00;99.90;;;;;;8029993;73;26515;-54
2022/10/22 07:42:15;;;;;;;26.13;11.07;;;17.10;99.90;;;;;;8043876;72;26361;-58
2022/10/22 07:52:17;;;;;;;22.23;9.33;;;17.10;99.90;;;;;;8044360;72;26273;-57
2022/10/22 08:02:20;;;;;;;21.00;8.37;;;17.20;99.90;;;;;;8011710;72;26569;-57
2022/10/22 08:12:22;;;;;;;13.37;6.53;;;17.20;99.90;;;;;;8010662;72;26263;-59
2022/10/22 08:22:25;;;;;;;14.73;5.50;;;17.40;99.90;;;;;;8021559;72;26267;-58
2022/10/22 08:32:27;;;;;;;12.53;4.20;;;17.60;99.90;;;;;;8037878;72;26652;-58
2022/10/22 08:42:48;;;;;;;14.07;3.40;;;17.90;99.90;;;;;;8011290;72;26280;-60
2022/10/22 08:52:54;;;;;;;15.13;5.77;;;18.00;99.90;;;;;;7969903;72;26285;-60
2022/10/22 09:03:05;;;;;;;12.80;4.90;;;17.90;99.90;;;;;;8001336;73;26816;-58
2022/10/22 09:13:13;;;;;;;12.10;5.87;;;18.00;99.90;;;;;;8030885;72;26214;-60
2022/10/22 09:23:22;;;;;;;10.87;6.17;;;18.20;99.90;;;;;;8016948;72;26712;-62
2022/10/22 09:33:27;;;;;;;25.10;14.77;;;18.20;99.90;;;;;;8011484;72;26763;-60
2022/10/22 09:43:30;;;;;;;26.27;16.93;;;18.30;99.90;;;;;;8008808;72;26284;-60
2022/10/22 09:53:38;;;;;;;37.10;18.13;;;18.30;99.90;;;;;;8041349;72;26220;-60
2022/10/22 10:03:40;;;;;;;32.93;18.73;;;18.40;99.90;;;;;;8014340;72;26271;-59
2022/10/22 10:14:01;;;;;;;38.27;23.23;;;18.50;99.90;;;;;;8031301;72;26307;-61
2022/10/22 10:24:22;;;;;;;47.27;29.30;;;18.60;99.90;;;;;;8049611;72;26203;-59
2022/10/22 10:34:31;;;;;;;62.80;38.20;;;18.60;99.90;;;;;;8024328;72;26326;-59
2022/10/22 10:44:39;;;;;;;59.53;37.53;;;18.70;99.90;;;;;;8025430;72;26767;-57
2022/10/22 10:54:48;;;;;;;59.90;36.77;;;18.70;99.90;;;;;;8039280;72;26275;-57
2022/10/22 11:04:59;;;;;;;63.30;38.70;;;18.80;99.90;;;;;;7988431;72;26245;-60
2022/10/22 11:15:14;;;;;;;67.47;41.27;;;18.80;99.90;;;;;;8038586;72;26209;-57
2022/10/22 11:25:22;;;;;;;62.93;35.33;;;18.90;99.90;;;;;;8035106;72;26216;-58
2022/10/22 11:35:27;;;;;;;50.30;30.73;;;18.90;99.90;;;;;;8012522;72;26205;-56
2022/10/22 11:45:35;;;;;;;30.20;14.67;;;18.90;99.90;;;;;;8045786;72;26245;-58
2022/10/22 11:55:54;;;;;;;37.60;22.17;;;18.80;99.90;;;;;;8026000;72;26251;-61
2022/10/22 12:06:11;;;;;;;41.00;21.07;;;18.90;99.90;;;;;;8033016;72;26327;-60
2022/10/22 12:16:14;;;;;;;45.40;20.90;;;18.90;99.90;;;;;;8040602;72;26672;-60
2022/10/22 12:26:29;;;;;;;38.00;17.07;;;18.90;99.90;;;;;;8027527;72;26215;-62
2022/10/22 12:36:34;;;;;;;31.80;10.93;;;19.00;99.90;;;;;;8030223;72;26218;-59
2022/10/22 12:46:36;;;;;;;24.90;14.33;;;19.00;99.90;;;;;;8051144;72;26241;-61
2022/10/22 12:56:39;;;;;;;18.17;9.60;;;19.00;99.90;;;;;;8001569;72;26187;-61
2022/10/22 13:06:47;;;;;;;18.30;9.33;;;19.00;99.90;;;;;;8030876;72;26335;-61
2022/10/22 13:17:12;;;;;;;23.40;11.60;;;19.00;99.90;;;;;;8042853;72;26253;-60
2022/10/22 13:27:14;;;;;;;26.83;11.73;;;19.00;99.90;;;;;;8046708;72;26808;-60
2022/10/22 13:37:17;;;;;;;23.40;13.50;;;19.10;99.90;;;;;;8021668;72;26329;-60
2022/10/22 13:47:28;;;;;;;22.97;10.43;;;19.00;99.90;;;;;;8031827;72;26225;-59
2022/10/22 13:57:31;;;;;;;16.87;10.30;;;19.00;99.90;;;;;;8028251;72;26311;-58
2022/10/22 14:07:34;;;;;;;19.93;9.17;;;19.10;99.90;;;;;;8024721;72;26279;-58
2022/10/22 14:17:37;;;;;;;22.80;9.30;;;19.10;99.90;;;;;;8015976;72;26991;-60
2022/10/22 14:27:40;;;;;;;16.50;6.43;;;19.10;99.90;;;;;;8033747;72;26247;-60
2022/10/22 14:37:43;;;;;;;15.23;3.97;;;19.00;99.90;;;;;;8012626;72;26879;-59
2022/10/22 14:47:45;;;;;;;7.40;3.03;;;19.00;99.90;;;;;;8026509;72;26728;-59
2022/10/22 14:57:48;;;;;;;6.60;3.17;;;19.00;99.90;;;;;;8021374;72;26226;-60
2022/10/22 15:07:50;;;;;;;10.30;2.90;;;19.00;99.90;;;;;;8005826;72;26244;-61
2022/10/22 15:17:53;;;;;;;17.10;3.17;;;19.00;99.90;;;;;;8055940;72;26295;-60
2022/10/22 15:27:55;;;;;;;41.40;6.67;;;19.00;99.90;;;;;;8032574;72;26291;-61
2022/10/22 15:37:58;;;;;;;10.33;2.60;;;19.00;99.90;;;;;;8034675;72;26794;-59
2022/10/22 15:48:00;;;;;;;19.70;3.27;;;19.00;99.90;;;;;;8041055;72;26278;-60
2022/10/22 15:58:03;;;;;;;17.23;4.33;;;18.90;99.90;;;;;;8015079;72;27078;-60
2022/10/22 16:08:05;;;;;;;21.03;5.27;;;18.90;99.90;;;;;;8025325;72;26251;-57
2022/10/22 16:18:08;;;;;;;13.83;4.77;;;18.90;99.90;;;;;;8023406;72;26247;-56
2022/10/22 16:28:11;;;;;;;14.77;5.67;;;18.80;99.90;;;;;;8045062;72;26223;-57
2022/10/22 16:38:13;;;;;;;11.20;2.73;;;18.80;99.90;;;;;;8010994;72;26331;-58
2022/10/22 16:48:17;;;;;;;12.43;3.30;;;18.60;99.90;;;;;;8018450;72;26729;-57
2022/10/22 16:58:20;;;;;;;11.70;3.50;;;18.60;99.90;;;;;;8027428;72;26232;-56
2022/10/22 17:08:22;;;;;;;13.07;3.07;;;18.60;99.90;;;;;;8023940;72;26469;-57
2022/10/22 17:18:25;;;;;;;16.73;3.00;;;18.50;99.90;;;;;;8024964;72;26217;-57
2022/10/22 17:28:28;;;;;;;9.83;2.73;;;18.40;99.90;;;;;;8002992;72;26306;-58
2022/10/22 17:38:30;;;;;;;16.40;3.33;;;18.40;99.90;;;;;;8010961;72;26451;-55
2022/10/22 17:48:34;;;;;;;15.43;3.40;;;18.20;99.90;;;;;;8059983;72;26286;-56
2022/10/22 17:58:37;;;;;;;24.20;3.53;;;18.20;99.90;;;;;;8061705;72;26320;-58
2022/10/22 18:08:39;;;;;;;13.50;3.50;;;18.10;99.90;;;;;;8029044;72;26781;-58
2022/10/22 18:18:47;;;;;;;14.70;3.23;;;18.00;99.90;;;;;;8023233;72;26295;-58
2022/10/22 18:28:49;;;;;;;9.30;2.80;;;18.00;99.90;;;;;;8024182;73;26224;-56
2022/10/22 18:39:01;;;;;;;14.30;3.30;;;17.60;99.90;;;;;;8024725;72;26206;-55
2022/10/22 18:49:05;;;;;;;9.27;2.90;;;17.70;99.90;;;;;;8013369;72;26759;-59
2022/10/22 18:59:16;;;;;;;9.33;2.77;;;17.80;99.90;;;;;;8007026;72;26240;-57
2022/10/22 19:09:19;;;;;;;11.57;2.77;;;17.80;99.90;;;;;;8002763;72;26280;-57
2022/10/22 19:19:23;;;;;;;11.57;3.00;;;17.80;99.90;;;;;;8038507;72;26309;-58
2022/10/22 19:29:25;;;;;;;7.13;2.90;;;17.80;99.90;;;;;;8023990;72;26783;-56
2022/10/22 19:39:28;;;;;;;9.50;2.80;;;17.80;99.90;;;;;;8029446;72;26227;-58
2022/10/22 19:49:31;;;;;;;10.40;2.77;;;17.70;99.90;;;;;;8025492;72;26249;-58
2022/10/22 19:59:33;;;;;;;10.10;2.70;;;17.70;99.90;;;;;;8020310;73;26241;-58
2022/10/22 20:09:36;;;;;;;7.77;2.33;;;17.70;99.90;;;;;;8040030;72;26318;-57
2022/10/22 20:19:38;;;;;;;8.97;2.97;;;17.60;99.90;;;;;;8035380;72;26783;-55
2022/10/22 20:29:41;;;;;;;10.90;3.23;;;17.70;99.90;;;;;;8024380;72;26391;-57
2022/10/22 20:39:44;;;;;;;9.67;3.67;;;17.70;99.90;;;;;;8035868;72;26802;-58
2022/10/22 20:49:46;;;;;;;5.83;2.77;;;17.70;99.90;;;;;;8028143;72;26296;-58
2022/10/22 20:59:49;;;;;;;8.47;2.90;;;17.70;99.90;;;;;;8006260;73;26271;-55
2022/10/22 21:09:51;;;;;;;17.30;4.37;;;17.70;99.90;;;;;;8024458;72;26272;-56
2022/10/22 21:19:54;;;;;;;7.37;2.93;;;17.70;99.90;;;;;;8018427;72;27059;-58
2022/10/22 21:29:56;;;;;;;11.53;2.90;;;17.80;99.90;;;;;;8013019;72;26321;-56
2022/10/22 21:40:00;;;;;;;10.23;2.50;;;17.70;99.90;;;;;;8026990;72;26283;-56
2022/10/22 21:50:02;;;;;;;6.40;3.97;;;17.60;99.90;;;;;;8063924;72;26239;-55
2022/10/22 22:00:07;;;;;;;5.47;2.57;;;17.60;99.90;;;;;;8045525;72;26225;-57
2022/10/22 22:10:09;;;;;;;6.60;2.50;;;17.60;99.90;;;;;;8005697;72;26302;-56
2022/10/22 22:20:12;;;;;;;9.77;2.50;;;17.60;99.90;;;;;;8005152;72;26821;-56
2022/10/22 22:30:16;;;;;;;7.60;2.13;;;17.60;99.90;;;;;;8025871;72;26226;-56
2022/10/22 22:40:19;;;;;;;9.40;2.67;;;17.60;99.90;;;;;;8027477;72;26689;-59
2022/10/22 22:50:21;;;;;;;5.67;2.10;;;17.60;99.90;;;;;;8031801;72;26299;-57
2022/10/22 23:00:24;;;;;;;7.17;2.47;;;17.60;99.90;;;;;;8052197;72;26392;-57
2022/10/22 23:10:26;;;;;;;8.23;2.37;;;17.60;99.90;;;;;;8042644;72;26310;-53
2022/10/22 23:20:29;;;;;;;5.30;2.57;;;17.60;99.90;;;;;;8062784;72;27102;-55
2022/10/22 23:30:31;;;;;;;5.33;2.20;;;17.50;99.90;;;;;;8044615;72;26228;-57
2022/10/22 23:40:34;;;;;;;11.77;2.07;;;17.50;99.90;;;;;;8054888;72;26353;-56
2022/10/22 23:50:37;;;;;;;7.03;2.53;;;17.40;99.90;;;;;;8041292;72;26236;-59
